Bei Facebook empfehlenBei Twitter postenGoogle plusPinterest

Das Wetter im Erzgebirge am 15.02.2015

Wetter und Klima am 15.02.2015 Holzhau im Erzgebirge (630m ü.NN)
Letzte gemessene Temperatur und Uhrzeit der Messung23:45:00 Uhr0.60 °C
Temperatur (Maximum / Höchstwert) und Uhrzeit der Messung14:00:00 Uhr4.70 °C
Temperatur (Minimum / Tiefstwert) und Uhrzeit der Messung01:15:00-3.30 °C
Errechneter Absolutwert der Temperaturschwankungen zwischen Tmin und Tmax des Tages8.00 K
Errechnete Tagesmitteltemperatur0.71042 °C
Gesamt - Niederschlag des Tages (in flüssiger Form)0.00 Liter / m²
Luftdruck (Maximum / Höchstwert) und Zeitpunkt der Messung23:00:00 Uhr1015.10 hPa
Luftdruck (Minimum / Tiefstwert) und Zeitpunkt der Messung06:30:00 Uhr1010.10 hPa
Errechneter Absolutwert der Luftdruckschwankungen des Tages5.00 hPa
Höchste gemessene Windgeschwindigkeit und Uhrzeit der Messung11:30:00 Uhr30.60 km/h
Errechnete Windhäufigkeit in Relation zu den Messwerten des Tages41.66667 %
Niedrigste Windkühle (Windchill) und Zeitpunkt der Messung00:30:00 Uhr-6.10 °C
Taupunkt (Maximum / Höchstwert) und Uhrzeit der Messung14:00:00 Uhr1.20 °C
Taupunkt (Minimum / Tiefstwert) und Uhrzeit der Messung01:15:00-4.70 °C
Anzahl der automatisch eingelesenen Messwerte 96

Detaillierte Wetter- und Klima- Messwerte für den 15.02.2015 in Holzhau im Erzgebirge (630m ü.NN)
ZeitTemperaturLuftdruckRel. LuftfeuchteWindWindrichtungWindchillTaupunktNiederschlag l/m²
23:45:000.60 °C1014.70 hPa85.00 %-1.60 °C 
23:30:000.60 °C1014.90 hPa84.00 %-1.80 °C 
23:15:001.00 °C1014.90 hPa83.00 %-1.60 °C 
23:00:001.50 °C1015.10 hPa83.00 %-1.10 °C 
22:45:001.80 °C1014.90 hPa83.00 %-0.80 °C 
22:30:002.10 °C1014.90 hPa83.00 %-0.50 °C 
22:15:002.00 °C1014.90 hPa85.00 %4.32 km/hSO2.00 °C-0.20 °C 
22:00:001.90 °C1014.90 hPa85.00 %-0.30 °C 
21:45:001.50 °C1014.70 hPa85.00 %-0.70 °C 
21:30:001.40 °C1014.40 hPa85.00 %-0.80 °C 
21:15:001.60 °C1014.50 hPa84.00 %-0.80 °C 
21:00:002.00 °C1014.50 hPa84.00 %2.16 km/hO2.00 °C-0.40 °C 
20:45:002.30 °C1014.40 hPa84.00 %-0.10 °C 
20:30:002.30 °C1014.40 hPa85.00 %0.00 °C 
20:15:002.20 °C1014.10 hPa85.00 %-0.10 °C 
20:00:002.00 °C1013.90 hPa85.00 %-0.20 °C 
19:45:002.10 °C1013.80 hPa85.00 %-0.20 °C 
19:30:001.90 °C1013.70 hPa85.00 %-0.30 °C 
19:15:001.90 °C1014.00 hPa84.00 %-0.50 °C 
19:00:001.90 °C1013.80 hPa84.00 %-0.50 °C 
18:45:001.90 °C1013.60 hPa84.00 %-0.50 °C 
18:30:001.90 °C1013.50 hPa84.00 %-0.50 °C 
18:15:001.90 °C1013.60 hPa84.00 %5.76 km/hOSO0.30 °C-0.50 °C 
18:00:001.90 °C1013.50 hPa83.00 %-0.70 °C 
17:45:001.90 °C1013.20 hPa83.00 %-0.70 °C 
17:30:001.90 °C1013.20 hPa83.00 %-0.70 °C 
17:15:002.10 °C1013.00 hPa83.00 %-0.50 °C 
17:00:002.10 °C1013.00 hPa82.00 %-0.60 °C 
16:45:002.30 °C1012.80 hPa81.00 %-0.60 °C 
16:30:002.40 °C1013.00 hPa81.00 %2.88 km/hO2.40 °C-0.50 °C 
16:15:002.60 °C1012.90 hPa81.00 %-0.30 °C 
16:00:002.80 °C1012.70 hPa80.00 %4.68 km/hSSO2.80 °C-0.30 °C 
15:45:002.90 °C1012.70 hPa80.00 %-0.20 °C 
15:30:003.20 °C1012.70 hPa79.00 %4.32 km/hNNW3.20 °C-0.10 °C 
15:15:003.30 °C1012.60 hPa79.00 %10.80 km/hO0.40 °C0.00 °C 
15:00:003.80 °C1012.50 hPa78.00 %6.12 km/hNNO2.30 °C0.30 °C 
14:45:004.10 °C1012.40 hPa77.00 %4.68 km/hO4.10 °C0.40 °C 
14:30:004.40 °C1012.30 hPa77.00 %0.70 °C 
14:15:004.30 °C1012.40 hPa78.00 %0.80 °C 
14:00:004.70 °C1012.40 hPa78.00 %4.68 km/hOSO4.70 °C1.20 °C 
13:45:003.80 °C1012.10 hPa81.00 %0.80 °C 
13:30:003.10 °C1012.20 hPa82.00 %0.30 °C 
13:15:002.90 °C1012.60 hPa81.00 %5.04 km/hSO1.70 °C0.00 °C 
13:00:002.90 °C1012.40 hPa81.00 %0.00 °C 
12:45:003.10 °C1012.20 hPa82.00 %5.76 km/hOSO1.60 °C0.30 °C 
12:30:003.10 °C1012.10 hPa81.00 %2.88 km/hO3.10 °C0.20 °C 
12:15:003.30 °C1011.90 hPa82.00 %3.24 km/hOSO3.30 °C0.50 °C 
12:00:002.90 °C1011.80 hPa84.00 %0.50 °C 
11:45:002.40 °C1012.00 hPa86.00 %0.30 °C 
11:30:002.10 °C1011.90 hPa86.00 %30.60 km/hSO-3.80 °C0.00 °C 
11:15:001.80 °C1011.90 hPa87.00 %7.92 km/hSO-0.60 °C-0.10 °C 
11:00:001.60 °C1011.80 hPa88.00 %10.44 km/hSO-1.50 °C-0.20 °C 
10:45:001.40 °C1011.70 hPa89.00 %4.32 km/hOSO1.40 °C-0.20 °C 
10:30:001.30 °C1011.80 hPa89.00 %6.84 km/hOSO-0.80 °C-0.30 °C 
10:15:001.00 °C1011.60 hPa90.00 %-0.50 °C 
10:00:000.80 °C1011.50 hPa90.00 %10.80 km/hSSO-2.60 °C-0.60 °C 
09:45:000.80 °C1011.60 hPa90.00 %4.32 km/hSSO0.80 °C-0.60 °C 
09:30:000.70 °C1011.60 hPa90.00 %-0.70 °C 
09:15:000.50 °C1011.30 hPa91.00 %13.32 km/hS-3.50 °C-0.80 °C 
09:00:000.40 °C1011.50 hPa91.00 %5.04 km/hSO-1.20 °C-0.90 °C 
08:45:000.40 °C1011.30 hPa91.00 %6.12 km/hOSO-1.60 °C-0.90 °C 
08:30:000.30 °C1011.30 hPa91.00 %19.44 km/hSO-4.80 °C-1.00 °C 
08:15:000.20 °C1011.10 hPa91.00 %4.32 km/hO0.20 °C-1.10 °C 
08:00:000.10 °C1010.90 hPa91.00 %14.40 km/hOSO-4.20 °C-1.20 °C 
07:45:00-0.10 °C1010.80 hPa92.00 %18.72 km/hOSO-5.20 °C-1.40 °C 
07:30:00-0.20 °C1010.70 hPa92.00 %-1.50 °C 
07:15:00-0.40 °C1010.80 hPa92.00 %5.04 km/hSSO-2.10 °C-1.70 °C 
07:00:00-0.70 °C1010.50 hPa92.00 %-2.00 °C 
06:45:00-1.10 °C1010.20 hPa92.00 %-2.40 °C 
06:30:00-1.40 °C1010.10 hPa92.00 %-2.70 °C 
06:15:00-1.60 °C1010.40 hPa91.00 %11.16 km/hO-5.50 °C-3.00 °C 
06:00:00-1.70 °C1010.50 hPa91.00 %2.16 km/hSO-1.70 °C-3.10 °C 
05:45:00-1.80 °C1010.60 hPa91.00 %7.20 km/hNNO-4.60 °C-3.20 °C 
05:30:00-1.70 °C1010.60 hPa91.00 %-3.10 °C 
05:15:00-1.80 °C1010.50 hPa91.00 %-3.20 °C 
05:00:00-1.70 °C1010.50 hPa91.00 %3.96 km/hNO-1.70 °C-3.10 °C 
04:45:00-1.50 °C1010.40 hPa91.00 %-2.90 °C 
04:30:00-1.60 °C1010.50 hPa91.00 %-3.00 °C 
04:15:00-1.70 °C1010.10 hPa91.00 %2.52 km/hNNO-1.70 °C-3.10 °C 
04:00:00-1.70 °C1010.30 hPa91.00 %-3.10 °C 
03:45:00-1.70 °C1010.40 hPa91.00 %-3.10 °C 
03:30:00-1.70 °C1010.40 hPa91.00 %-3.10 °C 
03:15:00-1.90 °C1010.30 hPa91.00 %3.60 km/hSO-1.90 °C-3.30 °C 
03:00:00-2.10 °C1010.50 hPa92.00 %-3.40 °C 
02:45:00-2.20 °C1010.30 hPa92.00 %-3.50 °C 
02:30:00-2.40 °C1010.30 hPa91.00 %-3.80 °C 
02:15:00-2.60 °C1010.30 hPa91.00 %2.88 km/hN-2.60 °C-4.00 °C 
02:00:00-2.90 °C1010.30 hPa91.00 %-4.30 °C 
01:45:00-3.10 °C1010.40 hPa91.00 %-4.50 °C 
01:30:00-3.20 °C1010.30 hPa91.00 %-4.60 °C 
01:15:00-3.30 °C1010.40 hPa91.00 %-4.70 °C 
01:00:00-3.30 °C1010.20 hPa91.00 %3.24 km/hNNO-3.30 °C-4.70 °C 
00:45:00-3.20 °C1010.40 hPa91.00 %5.76 km/hNNO-5.60 °C-4.60 °C 
00:30:00-3.20 °C1010.50 hPa91.00 %6.84 km/hNNO-6.10 °C-4.60 °C 
00:15:00-3.10 °C1010.60 hPa91.00 %5.76 km/hSSO-5.50 °C-4.50 °C 
00:00:00-3.10 °C1010.50 hPa91.00 %-4.50 °C 

Permanenter Link zu dieser Seite: Wetter im Erzgebirge am 15.02.2015
Performance-Info: Die Erstellung der Seite / Statistik(en) / Tabelle(n) erforderte 5 Datenbankserver-Abfrage(n) und dauerte 103 Millisekunden. (Dieser Messwert ist von der Gesamt-Auslastung des Servers abhängig.)
Erzgebirge - Wetter | Erzgebirge - Wetter (Mobilgeräte) | Komplette Klimadatenbank